Time;durP1;ratioP1;P1;durP2;ratioP2;P2;SDS_P1;SDS_P2;PMS_P1;PMS_P2;Temp;Humidity;BMP_temperature;BMP_pressure;BME280_temperature;BME280_humidity;BME280_pressure;Samples;Min_cycle;Max_cycle;Signal;HPM_P1;HPM_P2
2023/10/19 04:44:26;;;;;;;14.90;9.80;;;;;;;2.25;100.00;100079.68;104941;1301;22587;-46
2023/10/19 04:46:55;;;;;;;27.70;11.10;;;;;;;2.29;100.00;100080.51;107298;1295;22221;-52
2023/10/19 04:49:24;;;;;;;20.60;10.10;;;;;;;2.35;100.00;100079.30;106006;1290;25486;-47
2023/10/19 04:51:57;;;;;;;20.00;9.50;;;;;;;2.43;100.00;100079.88;105416;1300;22571;-46
2023/10/19 04:54:27;;;;;;;13.80;9.00;;;;;;;2.45;100.00;100082.87;106291;1295;22386;-53
2023/10/19 04:56:56;;;;;;;14.30;8.80;;;;;;;2.43;100.00;100086.08;106496;1295;23036;-50
2023/10/19 04:59:25;;;;;;;17.10;9.80;;;;;;;2.45;100.00;100089.58;106453;1298;22637;-54
2023/10/19 05:01:55;;;;;;;15.60;9.30;;;;;;;2.44;100.00;100089.74;105438;1303;22559;-48
2023/10/19 05:04:29;;;;;;;19.90;10.10;;;;;;;2.44;100.00;100090.61;106633;1296;22266;-48
2023/10/19 05:06:58;;;;;;;15.50;10.00;;;;;;;2.45;100.00;100090.29;107531;1301;22550;-55
2023/10/19 05:09:26;;;;;;;13.30;8.90;;;;;;;2.46;100.00;100092.55;106176;1299;22350;-51
2023/10/19 05:11:55;;;;;;;17.60;9.10;;;;;;;2.47;100.00;100094.30;106269;1300;22275;-54
2023/10/19 05:14:23;;;;;;;19.70;10.40;;;;;;;2.47;100.00;100094.98;106819;1295;22325;-53
2023/10/19 05:16:58;;;;;;;26.60;9.50;;;;;;;2.47;100.00;100096.02;105795;1298;23416;-55
2023/10/19 05:19:46;;;;;;;15.40;10.20;;;;;;;2.50;100.00;100100.23;106240;1295;22464;-47
2023/10/19 05:22:21;;;;;;;22.70;9.00;;;;;;;2.53;100.00;100099.30;107475;1295;22467;-55
2023/10/19 05:25:08;;;;;;;14.10;8.50;;;;;;;2.58;100.00;100100.47;105512;1295;22561;-48
2023/10/19 05:27:45;;;;;;;14.60;8.20;;;;;;;2.60;100.00;100098.98;106834;1296;22755;-57
2023/10/19 05:30:23;;;;;;;11.60;7.20;;;;;;;2.63;100.00;100100.11;106250;1302;22160;-49
2023/10/19 05:33:05;;;;;;;14.60;9.10;;;;;;;2.68;100.00;100102.13;106591;1303;22599;-49
2023/10/19 05:36:39;;;;;;;21.30;9.40;;;;;;;2.76;100.00;100109.77;105915;1295;22603;-55
2023/10/19 05:39:59;;;;;;;23.10;11.90;;;;;;;2.89;100.00;100110.67;105960;1298;22538;-55
2023/10/19 05:42:29;;;;;;;23.90;10.30;;;;;;;3.04;100.00;100108.49;106100;1299;22581;-56
2023/10/19 05:44:57;;;;;;;26.50;11.60;;;;;;;3.16;100.00;100111.91;106354;1297;22346;-52
2023/10/19 05:47:38;;;;;;;21.50;12.60;;;;;;;3.28;100.00;100109.82;106774;1296;26627;-49
2023/10/19 05:50:09;;;;;;;27.50;14.20;;;;;;;3.44;100.00;100105.74;106690;1297;22635;-51
2023/10/19 05:52:49;;;;;;;23.80;13.40;;;;;;;3.64;100.00;100110.55;106769;1303;22619;-57
2023/10/19 05:55:36;;;;;;;30.50;17.50;;;;;;;3.85;100.00;100109.34;106039;1296;22244;-57
2023/10/19 05:58:23;;;;;;;29.50;16.40;;;;;;;3.99;100.00;100109.00;106944;1298;23053;-47
2023/10/19 06:01:11;;;;;;;26.70;16.50;;;;;;;4.14;100.00;100112.80;105175;1301;22548;-51
2023/10/19 06:03:47;;;;;;;34.30;18.20;;;;;;;4.28;100.00;100115.35;106803;1298;23402;-48
2023/10/19 06:06:51;;;;;;;28.90;17.60;;;;;;;4.46;100.00;100109.88;106151;1296;22507;-54
2023/10/19 06:09:29;;;;;;;36.30;17.20;;;;;;;4.58;100.00;100108.25;105780;1301;22313;-48
2023/10/19 06:12:02;;;;;;;32.50;18.00;;;;;;;4.66;100.00;100114.11;107152;1288;22619;-49
2023/10/19 06:18:58;;;;;;;24.40;15.80;;;;;;;4.97;100.00;100119.40;105903;1295;23924;-48
2023/10/19 06:21:30;;;;;;;31.80;15.30;;;;;;;5.10;100.00;100118.45;105710;1301;22378;-48
2023/10/19 06:25:01;;;;;;;27.30;16.70;;;;;;;5.20;100.00;100116.21;106661;1297;23104;-55
2023/10/19 06:28:00;;;;;;;28.00;15.60;;;;;;;5.35;100.00;100116.85;106541;1296;22440;-48
2023/10/19 06:30:33;;;;;;;29.70;18.00;;;;;;;5.49;100.00;100115.70;107278;1298;23112;-57
2023/10/19 06:33:02;;;;;;;26.40;16.30;;;;;;;5.62;99.84;100116.27;106882;1294;24272;-51
2023/10/19 06:35:31;;;;;;;30.40;16.40;;;;;;;5.72;99.32;100114.19;107461;1296;22339;-56
2023/10/19 06:38:00;;;;;;;36.30;21.30;;;;;;;5.85;99.27;100116.67;106642;1285;22614;-51
2023/10/19 06:40:28;;;;;;;32.70;17.80;;;;;;;6.01;99.12;100110.72;106910;1287;22492;-56
2023/10/19 06:44:18;;;;;;;35.30;17.70;;;;;;;6.18;98.34;100111.15;105796;1296;22619;-58
2023/10/19 06:46:49;;;;;;;33.00;17.00;;;;;;;6.44;97.78;100112.90;106440;1298;22359;-57
2023/10/19 06:49:19;;;;;;;29.90;18.40;;;;;;;6.58;96.82;100113.79;106109;1298;23040;-55
2023/10/19 06:51:49;;;;;;;30.70;17.60;;;;;;;6.72;96.34;100119.69;106498;1296;22935;-56
2023/10/19 06:54:18;;;;;;;32.90;18.60;;;;;;;6.86;96.20;100118.65;106547;1300;22971;-55
2023/10/19 06:56:46;;;;;;;30.60;18.40;;;;;;;7.01;95.84;100116.58;106222;1288;22591;-48
2023/10/19 06:59:17;;;;;;;31.90;17.60;;;;;;;7.20;95.12;100111.06;105976;1301;22891;-50
2023/10/19 07:01:50;;;;;;;31.30;18.70;;;;;;;7.32;94.10;100110.49;106644;1296;22577;-53
2023/10/19 07:04:37;;;;;;;34.80;19.50;;;;;;;7.38;93.85;100111.42;105408;1299;22338;-53
2023/10/19 07:07:14;;;;;;;32.80;21.10;;;;;;;7.46;93.42;100109.24;106387;1300;22417;-54
2023/10/19 07:13:47;;;;;;;34.90;21.50;;;;;;;7.61;92.74;100108.52;106546;1298;24272;-50
2023/10/19 07:16:26;;;;;;;34.70;22.30;;;;;;;7.73;92.62;100111.05;106370;1296;22547;-49
2023/10/19 07:19:14;;;;;;;36.50;20.50;;;;;;;7.91;92.19;100103.90;106287;1281;22523;-47
2023/10/19 07:21:59;;;;;;;28.20;17.50;;;;;;;8.09;91.46;100112.04;107088;1298;23244;-49
2023/10/19 07:24:59;;;;;;;32.80;20.60;;;;;;;8.21;90.55;100113.33;106270;1295;23453;-49
2023/10/19 07:27:33;;;;;;;32.60;21.70;;;;;;;8.28;90.02;100112.33;102882;1295;3800269;-48
2023/10/19 07:30:22;;;;;;;51.40;23.40;;;;;;;8.35;89.61;100109.95;106666;1295;21826;-50
2023/10/19 07:33:38;;;;;;;29.20;19.30;;;;;;;8.40;88.48;100105.84;106334;1298;22910;-50
2023/10/19 07:36:14;;;;;;;31.10;19.90;;;;;;;8.44;88.00;100101.34;107080;1295;23390;-48
2023/10/19 07:39:22;;;;;;;33.40;20.80;;;;;;;8.52;87.97;100097.90;106162;1301;23338;-57
2023/10/19 07:42:07;;;;;;;30.50;22.10;;;;;;;8.66;86.84;100095.70;106440;1301;23482;-54
2023/10/19 07:44:45;;;;;;;42.30;22.10;;;;;;;8.79;86.52;100097.16;106940;1296;23211;-49
2023/10/19 07:47:33;;;;;;;39.00;22.90;;;;;;;8.95;86.22;100094.77;105981;1295;24260;-54
2023/10/19 07:50:30;;;;;;;38.20;27.00;;;;;;;9.13;85.22;100094.66;105619;1298;23384;-47
2023/10/19 07:53:22;;;;;;;37.20;25.60;;;;;;;9.27;84.42;100090.17;106451;1295;23359;-48
2023/10/19 07:56:17;;;;;;;37.10;26.20;;;;;;;9.40;83.36;100089.85;106047;1301;22603;-55
2023/10/19 07:58:49;;;;;;;37.40;23.00;;;;;;;9.52;82.12;100085.85;106484;1298;24214;-55
2023/10/19 08:01:28;;;;;;;37.80;26.40;;;;;;;9.63;81.61;100082.39;106662;1298;26883;-49
2023/10/19 08:03:58;;;;;;;38.70;24.80;;;;;;;9.75;81.36;100080.83;105257;1298;24340;-48
2023/10/19 08:07:29;;;;;;;39.30;22.90;;;;;;;9.98;80.62;100078.02;106773;1302;22594;-49
2023/10/19 08:10:25;;;;;;;44.20;26.50;;;;;;;10.18;79.51;100076.42;106387;1298;22594;-54
2023/10/19 08:12:55;;;;;;;32.80;21.20;;;;;;;10.28;78.16;100074.70;106585;1300;22564;-51
2023/10/19 08:15:55;;;;;;;37.60;23.00;;;;;;;10.36;77.61;100070.32;107067;1295;22274;-52
2023/10/19 08:18:43;;;;;;;34.20;21.50;;;;;;;10.44;76.49;100070.47;106502;1299;22494;-47
2023/10/19 08:21:28;;;;;;;32.80;21.20;;;;;;;10.46;75.88;100063.66;105563;1295;23157;-48
2023/10/19 08:24:38;;;;;;;30.70;20.40;;;;;;;10.56;76.03;100061.01;107079;1285;22604;-47
2023/10/19 08:27:44;;;;;;;26.10;17.70;;;;;;;10.71;74.70;100055.89;107256;1300;22111;-55
2023/10/19 08:30:18;;;;;;;27.20;19.40;;;;;;;10.81;72.29;100053.92;107472;1298;23048;-48
2023/10/19 08:33:06;;;;;;;22.50;17.20;;;;;;;10.91;70.30;100053.52;106024;1301;22659;-47
2023/10/19 08:35:49;;;;;;;26.60;17.30;;;;;;;10.98;69.57;100052.80;106258;1296;22535;-47
2023/10/19 08:38:21;;;;;;;25.80;17.90;;;;;;;11.06;69.33;100047.51;105972;1298;23080;-53
2023/10/19 08:42:05;;;;;;;26.50;19.50;;;;;;;11.16;68.69;100048.67;105318;1302;22754;-50
2023/10/19 08:44:42;;;;;;;31.70;22.10;;;;;;;11.29;68.65;100044.05;106527;1298;22819;-54
2023/10/19 08:47:40;;;;;;;23.50;16.50;;;;;;;11.37;67.47;100041.73;106107;1300;22330;-54
2023/10/19 08:50:23;;;;;;;18.20;11.50;;;;;;;11.39;67.31;100036.98;106314;1302;22593;-48
2023/10/19 08:53:08;;;;;;;21.00;11.60;;;;;;;11.42;67.46;100026.48;105784;1295;23303;-55
2023/10/19 08:55:55;;;;;;;19.30;11.80;;;;;;;11.45;67.84;100022.62;105679;1295;22273;-53
2023/10/19 09:01:39;;;;;;;14.30;9.50;;;;;;;11.56;66.75;100016.25;107372;1291;22465;-52
2023/10/19 09:04:19;;;;;;;13.50;9.00;;;;;;;11.61;67.50;100014.96;106807;1295;23187;-51
2023/10/19 09:06:57;;;;;;;11.80;7.70;;;;;;;11.73;67.34;100009.80;106245;1301;23213;-50
2023/10/19 09:09:50;;;;;;;11.90;8.20;;;;;;;11.92;67.24;100006.88;106196;1301;23779;-54
2023/10/19 09:12:33;;;;;;;12.80;8.60;;;;;;;12.07;66.66;100003.91;105968;1296;23059;-51
2023/10/19 09:15:29;;;;;;;13.30;9.00;;;;;;;12.23;65.94;100000.23;106958;1302;22340;-54
2023/10/19 09:18:21;;;;;;;13.70;8.90;;;;;;;12.39;65.76;100000.41;106779;1296;22464;-53
2023/10/19 09:21:02;;;;;;;19.20;10.30;;;;;;;12.53;64.09;99994.63;106023;1296;24040;-55
2023/10/19 09:24:59;;;;;;;12.20;8.50;;;;;;;12.64;63.18;99989.59;106402;1301;24245;-47
2023/10/19 09:27:39;;;;;;;13.60;8.90;;;;;;;12.71;63.65;99987.92;106407;1290;22603;-56
2023/10/19 09:30:13;;;;;;;13.30;8.70;;;;;;;12.83;62.73;99981.10;106573;1298;22211;-47
2023/10/19 09:33:21;;;;;;;11.30;8.00;;;;;;;12.96;62.17;99978.45;107037;1301;22942;-47
2023/10/19 09:36:25;;;;;;;12.80;10.10;;;;;;;13.06;60.79;99974.98;105712;1296;24311;-54
2023/10/19 09:39:12;;;;;;;13.60;7.70;;;;;;;13.07;60.40;99973.23;106088;1287;23714;-46
2023/10/19 09:41:47;;;;;;;9.30;6.50;;;;;;;13.11;61.11;99969.84;107426;1301;22215;-55
2023/10/19 09:44:18;;;;;;;9.30;6.00;;;;;;;13.21;60.30;99966.55;107096;1299;22609;-48
2023/10/19 09:46:48;;;;;;;;;;;;;;;13.34;59.66;99962.85;105954;1298;22538;-49
2023/10/19 09:49:32;;;;;;;12.20;6.90;;;;;;;13.43;58.96;99960.41;107129;1298;22395;-54
2023/10/19 09:52:01;;;;;;;8.00;5.30;;;;;;;13.50;58.79;99957.33;105860;1303;25406;-54
2023/10/19 09:54:47;;;;;;;8.50;5.40;;;;;;;13.59;57.61;99954.52;106686;1301;23367;-50
2023/10/19 09:57:18;;;;;;;9.30;4.80;;;;;;;13.71;57.12;99948.36;106540;1302;22483;-49
2023/10/19 09:59:50;;;;;;;9.10;5.10;;;;;;;13.88;55.77;99947.34;105386;1302;22774;-49
2023/10/19 10:02:24;;;;;;;9.10;5.80;;;;;;;14.04;54.41;99942.30;106664;1296;22233;-47
2023/10/19 10:05:43;;;;;;;9.70;5.00;;;;;;;14.28;54.62;99937.43;106365;1300;22644;-57
2023/10/19 10:08:18;;;;;;;7.20;4.90;;;;;;;14.73;51.80;99931.40;106895;1298;22584;-56
2023/10/19 10:10:50;;;;;;;8.20;4.80;;;;;;;14.90;50.45;99927.32;106736;1294;22428;-57
2023/10/19 10:13:31;;;;;;;8.50;4.50;;;;;;;15.02;49.16;99928.25;107102;1302;22244;-55
2023/10/19 10:16:05;;;;;;;7.60;3.90;;;;;;;15.23;49.11;99920.89;107372;1301;23294;-56
2023/10/19 10:22:14;;;;;;;5.30;4.00;;;;;;;15.65;48.54;99915.95;107230;1283;22571;-56
2023/10/19 10:24:44;;;;;;;8.90;5.10;;;;;;;15.87;47.96;99915.91;106997;1298;22271;-48
2023/10/19 10:27:15;;;;;;;6.00;4.90;;;;;;;15.98;47.73;99914.20;106365;1288;22312;-49
2023/10/19 10:29:59;;;;;;;6.30;4.50;;;;;;;16.01;47.58;99913.06;106173;1301;25427;-55
2023/10/19 10:32:56;;;;;;;7.60;4.10;;;;;;;16.00;46.82;99904.12;106229;1298;23956;-49
2023/10/19 10:35:41;;;;;;;6.10;4.40;;;;;;;16.03;48.03;99901.05;105970;1285;25479;-54
2023/10/19 10:38:29;;;;;;;8.30;4.40;;;;;;;16.14;48.11;99901.07;105954;1287;22569;-55
2023/10/19 10:41:49;;;;;;;11.00;5.30;;;;;;;16.18;48.26;99901.29;105727;1304;26112;-48
2023/10/19 10:45:09;;;;;;;7.90;5.20;;;;;;;16.37;48.83;99898.44;106052;1301;22602;-46
2023/10/19 10:47:44;;;;;;;10.80;5.00;;;;;;;16.56;48.57;99898.77;105289;1304;22614;-53
2023/10/19 10:50:30;;;;;;;9.40;5.10;;;;;;;16.65;48.68;99894.63;105911;1301;22602;-47
2023/10/19 10:53:51;;;;;;;8.80;6.00;;;;;;;16.66;49.38;99889.30;105984;1301;23205;-51
2023/10/19 10:56:22;;;;;;;10.80;5.40;;;;;;;16.66;49.97;99884.72;105294;1298;22553;-54
2023/10/19 10:58:57;;;;;;;6.70;4.70;;;;;;;16.67;49.71;99875.70;105820;1298;22581;-54
2023/10/19 11:01:32;;;;;;;8.70;5.50;;;;;;;16.60;50.11;99872.59;105735;1305;22396;-56
2023/10/19 11:04:17;;;;;;;7.40;4.50;;;;;;;16.60;50.41;99871.34;106134;1300;26978;-55
2023/10/19 11:06:57;;;;;;;7.30;4.50;;;;;;;16.60;50.36;99866.76;106063;1305;25352;-56
2023/10/19 11:09:45;;;;;;;7.00;4.00;;;;;;;16.53;50.96;99865.06;107047;1294;22447;-47
2023/10/19 11:12:38;;;;;;;9.10;5.20;;;;;;;16.41;51.21;99862.09;105368;1303;22903;-47
2023/10/19 11:19:56;;;;;;;9.40;5.20;;;;;;;15.88;52.74;99850.62;105685;1298;22563;-55
2023/10/19 11:22:44;;;;;;;6.20;3.90;;;;;;;15.77;53.46;99845.31;105871;1304;22589;-55
2023/10/19 11:25:31;;;;;;;7.60;4.10;;;;;;;15.75;53.81;99838.17;105928;1305;22943;-47
2023/10/19 11:28:20;;;;;;;4.90;3.60;;;;;;;15.76;53.84;99837.78;105046;1298;24212;-48
2023/10/19 11:31:00;;;;;;;6.70;4.00;;;;;;;15.75;53.87;99834.50;105990;1305;22602;-54
2023/10/19 11:33:36;;;;;;;10.30;3.70;;;;;;;15.68;54.73;99835.88;105892;1303;22587;-56
2023/10/19 11:36:17;;;;;;;9.10;4.00;;;;;;;15.71;55.11;99830.90;105710;1298;23022;-53
2023/10/19 11:38:51;;;;;;;10.30;4.50;;;;;;;15.88;55.45;99833.21;105957;1297;22367;-47
2023/10/19 11:41:27;;;;;;;;;;;;;;;16.01;54.91;99826.69;105512;1303;22583;-51
2023/10/19 11:44:01;;;;;;;14.60;8.40;;;;;;;16.01;54.80;99823.88;105715;1301;22579;-56
2023/10/19 11:51:19;;;;;;;6.90;4.10;;;;;;;15.82;55.36;99822.69;106111;1300;24215;-54
2023/10/19 11:53:47;;;;;;;10.30;5.10;;;;;;;15.74;55.90;99824.86;106065;1301;22391;-56
2023/10/19 11:56:16;;;;;;;23.60;11.00;;;;;;;15.68;56.37;99824.45;107122;1298;23153;-56
2023/10/19 11:58:46;;;;;;;7.50;4.30;;;;;;;15.67;56.29;99820.12;107167;1301;22468;-48
2023/10/19 12:01:16;;;;;;;16.20;9.50;;;;;;;15.66;56.29;99811.52;105712;1299;24148;-57
2023/10/19 12:03:46;;;;;;;11.00;4.90;;;;;;;15.65;56.53;99809.09;106861;1300;23053;-47
2023/10/19 12:06:32;;;;;;;15.70;7.40;;;;;;;15.65;56.74;99814.71;107061;1303;23333;-45
2023/10/19 12:09:16;;;;;;;13.20;7.20;;;;;;;15.63;57.06;99807.71;106070;1303;22256;-48
2023/10/19 12:11:45;;;;;;;16.10;6.30;;;;;;;15.63;56.80;99806.51;107282;1301;22696;-54
2023/10/19 12:14:19;;;;;;;21.20;12.50;;;;;;;15.60;57.04;99799.70;106865;1298;22722;-55
2023/10/19 12:17:02;;;;;;;8.30;4.70;;;;;;;15.58;57.26;99791.16;106133;1301;22596;-55
2023/10/19 12:19:37;;;;;;;8.60;4.40;;;;;;;15.59;57.48;99795.17;106367;1301;22491;-56
2023/10/19 12:22:09;;;;;;;5.60;3.80;;;;;;;15.58;57.39;99790.79;107134;1297;22402;-55
2023/10/19 12:24:44;;;;;;;9.00;3.80;;;;;;;15.57;57.64;99782.58;106705;1300;22246;-54
2023/10/19 12:27:24;;;;;;;6.80;3.90;;;;;;;15.59;57.95;99779.69;105515;1304;22565;-56
2023/10/19 12:29:54;;;;;;;6.20;4.10;;;;;;;15.64;58.17;99775.89;105876;1300;22575;-54
2023/10/19 12:32:28;;;;;;;5.00;3.80;;;;;;;15.71;57.98;99769.55;106246;1303;23071;-55
2023/10/19 12:35:11;;;;;;;7.60;4.50;;;;;;;15.76;57.65;99757.61;105208;1300;22640;-54
2023/10/19 12:37:46;;;;;;;8.80;5.50;;;;;;;15.74;57.72;99755.91;106825;1299;23060;-46
2023/10/19 12:40:27;;;;;;;11.50;6.80;;;;;;;15.67;57.99;99762.63;107146;1300;22334;-47
2023/10/19 12:42:57;;;;;;;11.90;4.40;;;;;;;15.64;58.11;99760.40;107197;1299;22355;-56
2023/10/19 12:45:26;;;;;;;11.50;6.30;;;;;;;15.64;58.20;99755.33;107143;1303;22243;-54
2023/10/19 12:47:55;;;;;;;7.40;3.50;;;;;;;15.64;58.17;99755.66;107283;1301;22353;-55
2023/10/19 12:50:23;;;;;;;8.20;4.20;;;;;;;15.62;58.66;99756.94;106119;1303;22633;-46
2023/10/19 12:52:55;;;;;;;5.20;3.50;;;;;;;15.61;58.77;99750.81;107032;1300;22598;-56
2023/10/19 12:55:27;;;;;;;8.10;3.20;;;;;;;15.61;58.64;99740.96;107062;1305;22376;-48
2023/10/19 12:58:06;;;;;;;5.30;3.20;;;;;;;15.62;58.42;99740.08;107137;1301;23470;-49
2023/10/19 13:00:44;;;;;;;5.00;3.00;;;;;;;15.62;58.40;99733.22;107319;1304;22243;-55
2023/10/19 13:03:16;;;;;;;6.10;2.70;;;;;;;15.64;58.71;99732.84;107501;1305;22439;-57
2023/10/19 13:11:02;;;;;;;6.00;2.70;;;;;;;15.79;58.56;99726.21;106389;1299;22271;-54
2023/10/19 13:13:44;;;;;;;9.50;3.00;;;;;;;15.91;58.54;99724.96;107593;1301;22280;-47
2023/10/19 13:16:15;;;;;;;4.00;2.30;;;;;;;16.13;58.58;99720.79;106648;1299;22290;-55
2023/10/19 13:18:49;;;;;;;5.30;2.50;;;;;;;16.36;57.56;99714.59;106761;1303;22163;-47
2023/10/19 13:21:28;;;;;;;8.80;3.60;;;;;;;16.49;56.69;99710.95;106418;1303;22339;-55
2023/10/19 13:24:03;;;;;;;7.50;3.40;;;;;;;16.49;56.97;99706.59;105860;1303;22336;-47
2023/10/19 13:26:32;;;;;;;6.30;2.40;;;;;;;16.45;56.91;99697.91;105883;1303;23327;-56
2023/10/19 13:29:02;;;;;;;3.40;1.80;;;;;;;16.43;56.90;99694.97;105915;1301;22289;-55
2023/10/19 13:31:32;;;;;;;8.00;2.70;;;;;;;16.45;56.28;99690.14;104788;1303;25773;-47
2023/10/19 13:34:03;;;;;;;3.10;2.40;;;;;;;16.46;56.22;99684.31;106503;1291;22482;-55
2023/10/19 13:36:31;;;;;;;4.90;2.30;;;;;;;16.46;55.84;99681.14;105783;1303;22588;-48
2023/10/19 13:39:03;;;;;;;3.80;2.50;;;;;;;16.53;55.33;99678.63;106316;1300;22855;-48
2023/10/19 13:41:37;;;;;;;4.70;2.90;;;;;;;16.78;55.21;99676.39;106300;1303;22232;-53
2023/10/19 13:44:13;;;;;;;5.10;2.20;;;;;;;16.85;54.94;99676.51;106888;1303;22911;-56
2023/10/19 13:46:41;;;;;;;7.90;2.60;;;;;;;16.83;54.75;99670.23;106345;1303;22944;-47
2023/10/19 13:49:13;;;;;;;5.00;2.70;;;;;;;16.76;54.83;99664.84;105585;1303;22564;-46
2023/10/19 13:51:43;;;;;;;9.40;4.10;;;;;;;16.69;54.16;99659.59;104744;1303;22637;-55
2023/10/19 13:54:17;;;;;;;6.30;2.70;;;;;;;16.64;54.01;99656.44;105295;1303;22684;-47
2023/10/19 13:56:49;;;;;;;4.60;2.40;;;;;;;16.57;53.82;99659.67;104862;1302;22572;-51
2023/10/19 13:59:23;;;;;;;5.60;2.10;;;;;;;16.47;54.10;99655.23;105043;1303;22583;-46
2023/10/19 14:02:00;;;;;;;8.40;2.50;;;;;;;16.41;54.18;99657.91;104718;1303;22557;-50
2023/10/19 14:04:29;;;;;;;6.00;2.50;;;;;;;16.43;54.32;99657.66;106688;1304;22264;-47
2023/10/19 14:06:59;;;;;;;3.70;2.20;;;;;;;16.58;53.80;99650.11;106934;1303;22294;-47
2023/10/19 14:09:31;;;;;;;10.00;2.70;;;;;;;16.64;53.46;99646.75;107159;1303;22558;-54
2023/10/19 14:12:04;;;;;;;8.00;3.00;;;;;;;16.52;53.67;99648.02;106831;1298;23125;-46
2023/10/19 14:14:33;;;;;;;52.60;29.20;;;;;;;16.43;54.11;99646.92;105976;1303;22251;-47
2023/10/19 14:17:02;;;;;;;78.40;43.90;;;;;;;16.56;53.89;99641.38;107073;1303;22344;-48
2023/10/19 14:19:31;;;;;;;16.10;10.40;;;;;;;16.57;53.68;99633.63;106197;1303;22213;-47
